Archival Weather

Chicago O'Hare International

Chicago, Illinois (KORD)

Report from: Tuesday, December 6, 2022 8:51 AM CST
Current time: Saturday, February 4, 2023 9:40 PM CST

Current weather
Weather history
Weather forecast

Temperature5.0°C (41.0°F)
Wind chill2.1°C (35.8°F)
Dew point1.1°C (34.0°F)
Winds 7 kts (3.6 m/s, 8.1 mph) North (360°)
Visibility10 mi. (16.1 km)
Clouds Ceiling: Overcast 1,800 ft. (549 m)
Altimeter30.02 in.Hg (1017 mB)
Relative humidity76 %
Density altitude-1,223 ft. (-373 m)
Sea-level pressure101.7 kPa (1017 mB, 30.04 in.Hg)
Remarks Automated weather observing station with precipitation discriminator
Pressure rising more quickly
Flight conditions Marginal Visual Meteorological Conditions
Raw dataKORD 061451Z 36007KT 10SM OVC018 05/01 A3002 RMK AO2 SLP171 T00500011 53018
An unhandled exception has occurred. See browser dev tools for details. Reload 🗙